Time;durP1;ratioP1;P1;durP2;ratioP2;P2;SDS_P1;SDS_P2;PMS_P1;PMS_P2;Temp;Humidity;BMP_temperature;BMP_pressure;BME280_temperature;BME280_humidity;BME280_pressure;Samples;Min_cycle;Max_cycle;Signal;HPM_P1;HPM_P2
2023/02/22 00:02:43;;;;;;;40.55;17.08;;;10.00;89.00;;;;;;9171571;19;20015;-67
2023/02/22 00:05:52;;;;;;;39.85;18.38;;;10.00;88.90;;;;;;9171640;19;20437;-67
2023/02/22 00:08:58;;;;;;;37.05;16.83;;;10.00;88.90;;;;;;9176370;19;20018;-65
2023/02/22 00:12:02;;;;;;;39.22;17.80;;;10.00;88.90;;;;;;9182156;19;20011;-66
2023/02/22 00:15:12;;;;;;;37.17;16.65;;;10.00;89.50;;;;;;9184483;19;20010;-65
2023/02/22 00:18:18;;;;;;;39.63;16.77;;;10.00;88.90;;;;;;9184871;19;20086;-67
2023/02/22 00:21:25;;;;;;;35.00;16.48;;;10.00;88.90;;;;;;9183762;19;20014;-65
2023/02/22 00:24:30;;;;;;;40.15;17.20;;;10.00;88.90;;;;;;9183100;19;20017;-67
2023/02/22 00:27:36;;;;;;;37.22;15.85;;;10.00;88.90;;;;;;9183633;19;20021;-67
2023/02/22 00:30:42;;;;;;;39.13;17.30;;;10.00;88.90;;;;;;9184165;19;20034;-64
2023/02/22 00:33:48;;;;;;;41.85;16.77;;;10.00;89.00;;;;;;9181904;19;20026;-66
2023/02/22 00:36:55;;;;;;;40.83;18.10;;;9.90;88.90;;;;;;9183589;19;20014;-63
2023/02/22 00:40:02;;;;;;;42.00;18.05;;;9.90;88.90;;;;;;9180731;19;20006;-64
2023/02/22 00:43:10;;;;;;;42.45;17.73;;;9.90;88.90;;;;;;9181177;19;20023;-66
2023/02/22 00:46:16;;;;;;;43.75;18.02;;;9.90;88.90;;;;;;9183619;19;20026;-65
2023/02/22 00:49:20;;;;;;;;;;;9.90;88.90;;;;;;9184708;19;20022;-66
2023/02/22 00:52:30;;;;;;;34.13;15.85;;;9.90;88.90;;;;;;9181898;19;20446;-66
2023/02/22 00:55:36;;;;;;;43.03;18.40;;;9.90;88.90;;;;;;9182632;19;20484;-65
2023/02/22 00:58:43;;;;;;;46.55;18.40;;;9.90;88.80;;;;;;9183503;19;20779;-64
2023/02/22 01:01:47;;;;;;;35.05;15.90;;;9.90;88.90;;;;;;9182614;19;20019;-65
2023/02/22 01:04:53;;;;;;;43.75;18.63;;;9.90;88.90;;;;;;9182594;19;20015;-66
2023/02/22 01:08:01;;;;;;;41.22;17.98;;;9.90;88.90;;;;;;9182293;19;20023;-65
2023/02/22 01:11:07;;;;;;;38.25;16.42;;;9.90;88.90;;;;;;9180813;19;20030;-66
2023/02/22 01:14:11;;;;;;;43.88;18.25;;;9.90;88.90;;;;;;9179511;19;20047;-67
2023/02/22 01:17:17;;;;;;;48.20;17.85;;;9.90;88.90;;;;;;9183081;19;20019;-65
2023/02/22 01:20:24;;;;;;;41.20;18.05;;;9.90;88.90;;;;;;9175603;19;20018;-66
2023/02/22 01:23:32;;;;;;;39.55;17.77;;;9.90;88.90;;;;;;9181965;19;20364;-67
2023/02/22 01:26:36;;;;;;;41.22;18.60;;;9.90;88.90;;;;;;9182093;19;20085;-65
2023/02/22 01:29:42;;;;;;;41.97;18.35;;;9.90;88.90;;;;;;9182027;19;20030;-66
2023/02/22 01:32:46;;;;;;;46.55;18.27;;;9.90;88.90;;;;;;9180516;19;20494;-67
2023/02/22 01:35:54;;;;;;;40.50;18.30;;;9.80;88.90;;;;;;9180025;19;20082;-67
2023/02/22 01:39:00;;;;;;;42.35;18.35;;;9.90;88.90;;;;;;9182456;19;20019;-66
2023/02/22 01:42:08;;;;;;;41.08;18.10;;;9.90;88.90;;;;;;9181346;19;20483;-66
2023/02/22 01:45:43;;;;;;;41.95;18.15;;;9.80;88.90;;;;;;9181525;19;20030;-64
2023/02/22 01:48:52;;;;;;;42.03;18.65;;;9.80;88.90;;;;;;9181872;19;20491;-67
2023/02/22 01:52:00;;;;;;;42.92;18.13;;;9.80;88.90;;;;;;9180593;19;20015;-66
2023/02/22 01:55:09;;;;;;;49.42;19.23;;;9.80;88.90;;;;;;9181213;19;20021;-67
2023/02/22 01:58:17;;;;;;;44.90;18.52;;;9.80;88.90;;;;;;9179427;19;20015;-65
2023/02/22 02:01:25;;;;;;;53.13;20.92;;;9.80;88.90;;;;;;9180864;19;20032;-65
2023/02/22 02:04:29;;;;;;;45.05;20.35;;;9.80;88.90;;;;;;9180840;19;20011;-65
2023/02/22 02:07:36;;;;;;;50.97;20.33;;;9.80;89.00;;;;;;9181378;19;20021;-64
2023/02/22 02:10:43;;;;;;;57.70;22.88;;;9.70;88.90;;;;;;9180282;19;20040;-65
2023/02/22 02:13:53;;;;;;;58.55;24.25;;;9.70;88.90;;;;;;9176179;19;20014;-66
2023/02/22 02:17:00;;;;;;;63.05;24.45;;;9.70;88.90;;;;;;9180655;19;20015;-66
2023/02/22 02:20:16;;;;;;;57.75;23.50;;;9.70;88.90;;;;;;9175592;19;20026;-66
2023/02/22 02:23:46;;;;;;;65.30;25.13;;;9.70;89.00;;;;;;9180429;19;20018;-65
2023/02/22 02:27:09;;;;;;;67.65;25.52;;;9.70;88.90;;;;;;9177311;19;20341;-67
2023/02/22 02:30:45;;;;;;;62.20;24.67;;;9.60;88.80;;;;;;9179474;19;20018;-65
2023/02/22 02:33:58;;;;;;;64.45;25.02;;;9.60;88.90;;;;;;9176130;19;20015;-67
2023/02/22 02:37:07;;;;;;;67.10;26.35;;;9.60;88.90;;;;;;9179789;19;20019;-67
2023/02/22 02:40:22;;;;;;;78.18;27.45;;;9.60;88.90;;;;;;9180954;19;20021;-66
2023/02/22 02:43:30;;;;;;;80.97;27.60;;;9.60;88.80;;;;;;9179296;19;20014;-65
2023/02/22 02:46:44;;;;;;;79.03;26.70;;;9.60;88.80;;;;;;9177989;19;20021;-66
2023/02/22 02:49:55;;;;;;;83.75;30.65;;;9.60;88.80;;;;;;9179628;19;20014;-66
2023/02/22 02:53:05;;;;;;;92.20;30.10;;;9.60;88.80;;;;;;9177684;19;20475;-64
2023/02/22 02:56:09;;;;;;;82.13;28.85;;;9.50;88.80;;;;;;9178940;19;20612;-68
2023/02/22 02:59:31;;;;;;;87.75;28.63;;;9.60;89.40;;;;;;9179217;19;20372;-67
2023/02/22 03:02:52;;;;;;;89.13;28.50;;;9.50;88.70;;;;;;9175918;19;20014;-67
2023/02/22 03:06:18;;;;;;;83.60;29.45;;;9.50;88.70;;;;;;9176560;19;20017;-66
2023/02/22 03:09:36;;;;;;;93.25;30.08;;;9.50;88.70;;;;;;9179178;19;20021;-65
2023/02/22 03:12:49;;;;;;;91.70;30.33;;;9.50;88.70;;;;;;9173033;19;20011;-66
2023/02/22 03:15:57;;;;;;;99.47;32.45;;;9.50;88.70;;;;;;9178460;19;20047;-66
2023/02/22 03:19:10;;;;;;;103.35;32.85;;;9.50;88.70;;;;;;9174135;19;20025;-65
2023/02/22 03:22:23;;;;;;;98.00;33.72;;;9.50;88.70;;;;;;9176740;19;20014;-67
2023/02/22 03:25:37;;;;;;;93.47;32.17;;;9.50;88.70;;;;;;9176500;19;20372;-65
2023/02/22 03:28:44;;;;;;;99.25;33.70;;;9.50;88.70;;;;;;9172365;19;20022;-65
2023/02/22 03:31:54;;;;;;;86.43;29.85;;;9.40;88.60;;;;;;9176355;19;20022;-67
2023/02/22 03:35:05;;;;;;;100.38;34.65;;;9.40;88.60;;;;;;9175820;19;20476;-65
2023/02/22 03:38:20;;;;;;;104.40;34.20;;;9.40;88.60;;;;;;9175717;19;20022;-65
2023/02/22 03:41:27;;;;;;;101.43;34.40;;;9.40;88.60;;;;;;9175884;19;20015;-66
2023/02/22 03:44:39;;;;;;;85.10;31.85;;;9.40;88.50;;;;;;9175133;19;20053;-67
2023/02/22 03:47:49;;;;;;;92.95;32.25;;;9.40;88.50;;;;;;9177393;19;20019;-65
2023/02/22 03:50:57;;;;;;;86.95;30.45;;;9.40;88.50;;;;;;9176000;19;20018;-67
2023/02/22 03:54:03;;;;;;;97.93;31.58;;;9.30;88.40;;;;;;9172876;19;20693;-67
2023/02/22 03:57:21;;;;;;;97.63;32.13;;;9.30;88.50;;;;;;9175125;19;20016;-64
2023/02/22 04:00:33;;;;;;;94.80;30.30;;;9.30;88.50;;;;;;9175266;19;20019;-67
2023/02/22 04:03:39;;;;;;;90.00;28.55;;;9.30;88.40;;;;;;9176716;19;20022;-65
2023/02/22 04:06:43;;;;;;;92.70;30.75;;;9.20;88.40;;;;;;9174583;19;20045;-66
2023/02/22 04:09:51;;;;;;;95.65;32.80;;;9.20;88.30;;;;;;9174352;19;20011;-66
2023/02/22 04:12:56;;;;;;;87.95;29.63;;;9.20;88.30;;;;;;9173246;19;20472;-65
2023/02/22 04:16:02;;;;;;;98.18;31.08;;;9.20;88.40;;;;;;9174115;19;20011;-65
2023/02/22 04:19:07;;;;;;;102.88;32.10;;;9.20;88.40;;;;;;9170036;19;20019;-65
2023/02/22 04:22:14;;;;;;;87.13;29.75;;;9.20;88.40;;;;;;9174039;19;20015;-65
2023/02/22 04:25:20;;;;;;;;;;;9.20;88.40;;;;;;9177391;19;20364;-65
2023/02/22 04:28:26;;;;;;;98.10;29.15;;;9.20;88.30;;;;;;9173805;19;19926;-67
2023/02/22 04:31:40;;;;;;;103.32;31.60;;;9.10;88.20;;;;;;9174166;19;20546;-65
2023/02/22 04:34:46;;;;;;;104.97;32.25;;;9.10;88.30;;;;;;9170820;19;20476;-66
2023/02/22 04:37:50;;;;;;;;;;;9.10;88.20;;;;;;9174344;19;20737;-65
2023/02/22 04:40:58;;;;;;;95.57;28.90;;;9.10;88.30;;;;;;9173675;19;19933;-67
2023/02/22 04:44:04;;;;;;;105.40;30.70;;;9.10;88.20;;;;;;9173375;19;20014;-65
2023/02/22 04:47:10;;;;;;;93.25;29.65;;;9.00;88.20;;;;;;9173181;19;20014;-66
2023/02/22 04:50:15;;;;;;;;;;;9.00;88.20;;;;;;9176261;19;20039;-65
2023/02/22 04:53:21;;;;;;;94.13;28.58;;;9.00;88.20;;;;;;9171194;19;19958;-65
2023/02/22 04:56:27;;;;;;;103.13;29.83;;;9.00;88.20;;;;;;9179166;19;20018;-68
2023/02/22 04:59:33;;;;;;;107.07;30.63;;;8.90;88.20;;;;;;9181128;19;20014;-68
2023/02/22 05:02:40;;;;;;;92.40;29.00;;;8.90;88.20;;;;;;9180652;19;20364;-64
2023/02/22 05:05:46;;;;;;;98.32;30.92;;;8.90;88.20;;;;;;9183076;19;20475;-67
2023/02/22 05:08:49;;;;;;;;;;;8.90;88.20;;;;;;9184362;19;20014;-65
2023/02/22 05:11:57;;;;;;;111.50;31.33;;;8.80;88.20;;;;;;9180263;19;19926;-65
2023/02/22 05:15:01;;;;;;;102.65;29.52;;;8.80;88.10;;;;;;9180713;19;20014;-64
2023/02/22 05:18:07;;;;;;;105.90;31.35;;;8.80;88.10;;;;;;9183167;19;20030;-67
2023/02/22 05:21:12;;;;;;;;;;;8.80;88.20;;;;;;9177043;19;20019;-65
2023/02/22 05:24:18;;;;;;;99.82;30.35;;;8.70;88.20;;;;;;9182645;19;19930;-66
2023/02/22 05:27:23;;;;;;;;;;;8.80;88.20;;;;;;9183087;19;20010;-65
2023/02/22 05:30:31;;;;;;;103.78;30.58;;;8.70;88.20;;;;;;9182256;19;19933;-66
2023/02/22 05:33:35;;;;;;;98.82;30.15;;;8.70;88.20;;;;;;9180418;19;20055;-64
2023/02/22 05:36:41;;;;;;;111.10;31.45;;;8.60;88.10;;;;;;9181594;19;20022;-65
2023/02/22 05:39:45;;;;;;;109.50;35.03;;;8.60;88.20;;;;;;9182001;19;20015;-66
2023/02/22 05:42:54;;;;;;;103.38;33.10;;;8.60;88.20;;;;;;9179926;19;20039;-64
2023/02/22 05:45:58;;;;;;;107.13;32.25;;;8.60;88.30;;;;;;9181314;19;20468;-64
2023/02/22 05:49:04;;;;;;;111.00;31.90;;;8.60;88.90;;;;;;9181358;19;20018;-64
2023/02/22 05:52:07;;;;;;;;;;;8.50;88.30;;;;;;9182554;19;20360;-65
2023/02/22 05:55:16;;;;;;;114.45;33.92;;;8.50;88.30;;;;;;9178373;19;19919;-65
2023/02/22 05:58:23;;;;;;;106.20;30.40;;;8.50;88.20;;;;;;9180915;19;20401;-64
2023/02/22 06:01:29;;;;;;;119.53;33.55;;;8.50;88.30;;;;;;9180398;19;20018;-66
2023/02/22 06:04:33;;;;;;;123.05;34.10;;;8.50;88.30;;;;;;9180934;19;20018;-65
2023/02/22 06:07:38;;;;;;;111.53;33.38;;;8.50;88.40;;;;;;9177594;19;20022;-65
2023/02/22 06:11:02;;;;;;;113.40;32.38;;;8.50;88.40;;;;;;9178179;19;20102;-65
2023/02/22 06:14:10;;;;;;;106.85;32.13;;;8.50;88.40;;;;;;9177564;19;20491;-63
2023/02/22 06:17:15;;;;;;;112.75;33.67;;;8.50;88.40;;;;;;9177079;19;20022;-64
2023/02/22 06:20:23;;;;;;;118.95;33.45;;;8.50;88.40;;;;;;9175816;19;20006;-65
2023/02/22 06:23:28;;;;;;;109.03;31.10;;;8.50;88.40;;;;;;9179211;19;20031;-65
2023/02/22 06:26:34;;;;;;;113.72;33.75;;;8.50;88.40;;;;;;9180022;19;20372;-64
2023/02/22 06:29:40;;;;;;;119.07;33.42;;;8.60;88.40;;;;;;9180576;19;20014;-65
2023/02/22 06:32:46;;;;;;;120.85;33.28;;;8.50;88.30;;;;;;9178582;19;20022;-65
2023/02/22 06:35:50;;;;;;;;;;;8.50;88.40;;;;;;9176025;19;20018;-64
2023/02/22 06:38:57;;;;;;;116.25;33.05;;;8.50;88.40;;;;;;9172958;19;19922;-67
2023/02/22 06:42:01;;;;;;;124.82;33.15;;;8.50;88.30;;;;;;9175130;19;20480;-68
2023/02/22 06:45:10;;;;;;;132.70;37.75;;;8.50;89.00;;;;;;9176140;19;20010;-66
2023/02/22 06:48:14;;;;;;;124.70;36.53;;;8.50;88.40;;;;;;9177067;19;20462;-65
2023/02/22 06:51:20;;;;;;;129.60;38.28;;;8.50;88.40;;;;;;9179550;19;20022;-64
2023/02/22 06:54:26;;;;;;;128.77;36.95;;;8.50;88.40;;;;;;9176852;19;20034;-65
2023/02/22 06:57:31;;;;;;;130.40;36.95;;;8.60;88.50;;;;;;9178782;19;20011;-67
2023/02/22 07:00:37;;;;;;;145.65;40.20;;;8.60;88.50;;;;;;9178349;19;20468;-67
2023/02/22 07:03:43;;;;;;;119.97;35.97;;;8.50;88.50;;;;;;9176775;19;20025;-66
2023/02/22 07:06:47;;;;;;;;;;;8.60;88.60;;;;;;9179998;19;20486;-63
2023/02/22 07:09:53;;;;;;;135.55;37.67;;;8.60;88.60;;;;;;9177878;19;20253;-65
2023/02/22 07:12:57;;;;;;;;;;;8.60;88.50;;;;;;9175184;19;20039;-64
2023/02/22 07:16:05;;;;;;;136.55;36.55;;;8.50;88.50;;;;;;9178611;19;19933;-64
2023/02/22 07:19:09;;;;;;;153.35;39.22;;;8.50;88.50;;;;;;9173102;19;20014;-66
2023/02/22 07:22:16;;;;;;;154.25;39.70;;;8.50;88.50;;;;;;9178158;19;20011;-65
2023/02/22 07:25:20;;;;;;;158.35;38.95;;;8.60;89.20;;;;;;9177808;19;20010;-65
2023/02/22 07:28:26;;;;;;;164.18;41.08;;;8.60;88.60;;;;;;9169250;19;20018;-67
2023/02/22 07:31:35;;;;;;;;;;;8.60;88.60;;;;;;9172808;19;20023;-65
2023/02/22 07:34:42;;;;;;;160.10;39.70;;;8.60;88.60;;;;;;9168840;19;19930;-67
2023/02/22 07:37:47;;;;;;;165.07;39.80;;;8.60;88.60;;;;;;9172191;19;20022;-65
2023/02/22 07:40:52;;;;;;;171.57;42.38;;;8.60;88.60;;;;;;9170702;19;20752;-64
2023/02/22 07:43:56;;;;;;;174.95;43.15;;;8.60;88.70;;;;;;9171549;19;20502;-66
2023/02/22 07:47:04;;;;;;;177.30;40.83;;;8.60;88.70;;;;;;9171671;19;20029;-65
2023/02/22 07:50:08;;;;;;;169.52;41.33;;;8.60;88.70;;;;;;9171417;19;20018;-67
2023/02/22 07:53:18;;;;;;;169.55;40.55;;;8.60;88.70;;;;;;9169843;19;20025;-66
2023/02/22 07:56:22;;;;;;;158.27;40.70;;;8.60;88.70;;;;;;9170966;19;20015;-67
2023/02/22 07:59:28;;;;;;;155.90;41.28;;;8.60;88.80;;;;;;9170774;19;20015;-64
2023/02/22 08:02:34;;;;;;;155.35;41.05;;;8.60;88.80;;;;;;9171255;19;20019;-63
2023/02/22 08:05:41;;;;;;;167.07;41.65;;;8.60;88.80;;;;;;9173203;19;20023;-66
2023/02/22 08:08:45;;;;;;;166.93;41.83;;;8.60;88.80;;;;;;9171281;19;20018;-65
2023/02/22 08:11:51;;;;;;;142.18;36.13;;;8.60;88.80;;;;;;9172496;19;20033;-65
2023/02/22 08:14:55;;;;;;;;;;;8.60;88.90;;;;;;9173608;19;20023;-65
2023/02/22 08:18:04;;;;;;;143.57;35.75;;;8.60;88.80;;;;;;9176122;19;19918;-67
2023/02/22 08:21:08;;;;;;;135.52;36.83;;;8.60;88.70;;;;;;9171716;19;20023;-66
2023/02/22 08:24:14;;;;;;;135.38;35.00;;;8.60;88.80;;;;;;9167150;19;20018;-63
2023/02/22 08:27:18;;;;;;;145.02;39.28;;;8.60;88.80;;;;;;9167339;19;20030;-66
2023/02/22 08:30:24;;;;;;;155.25;35.20;;;8.60;88.90;;;;;;9167216;19;20018;-65
2023/02/22 08:33:30;;;;;;;134.65;37.75;;;8.60;88.90;;;;;;9177010;19;20501;-69
2023/02/22 08:36:36;;;;;;;130.88;36.35;;;8.60;88.90;;;;;;9181581;19;20002;-67
2023/02/22 08:39:40;;;;;;;133.98;36.17;;;8.70;89.00;;;;;;9182447;19;20011;-65
2023/02/22 08:42:46;;;;;;;122.93;33.17;;;8.70;89.00;;;;;;9183317;19;20017;-66
2023/02/22 08:45:51;;;;;;;129.43;35.30;;;8.70;89.10;;;;;;9182744;19;20500;-66
2023/02/22 08:48:59;;;;;;;134.82;34.85;;;8.70;89.00;;;;;;9183815;19;20017;-64
2023/02/22 08:52:03;;;;;;;120.15;32.70;;;8.70;89.00;;;;;;9182181;19;20015;-65
2023/02/22 08:55:09;;;;;;;125.07;32.47;;;8.70;89.00;;;;;;9179726;19;20030;-66
2023/02/22 08:58:13;;;;;;;107.80;33.17;;;8.70;89.00;;;;;;9178699;19;20348;-65
2023/02/22 09:01:21;;;;;;;122.82;34.30;;;8.70;89.00;;;;;;9172682;19;20022;-67
2023/02/22 09:04:38;;;;;;;103.47;30.27;;;8.70;89.00;;;;;;9174790;19;20089;-67
2023/02/22 09:07:45;;;;;;;106.35;32.95;;;8.70;89.00;;;;;;9173276;19;20022;-64
2023/02/22 09:10:51;;;;;;;106.32;30.98;;;8.70;89.10;;;;;;9174243;19;20022;-66
2023/02/22 09:13:57;;;;;;;113.05;32.00;;;8.70;89.10;;;;;;9177045;19;20014;-65
2023/02/22 09:17:01;;;;;;;112.35;32.88;;;8.80;89.20;;;;;;9179553;19;20601;-66
2023/02/22 09:20:13;;;;;;;116.53;33.53;;;8.70;89.10;;;;;;9171237;19;20015;-67
2023/02/22 09:23:19;;;;;;;111.95;32.70;;;8.80;89.20;;;;;;9173399;19;20018;-65
2023/02/22 09:26:27;;;;;;;112.97;34.38;;;8.80;89.10;;;;;;9175039;19;20467;-65
2023/02/22 09:29:30;;;;;;;;;;;8.80;89.20;;;;;;9181114;19;20469;-67
2023/02/22 09:32:37;;;;;;;111.93;31.40;;;8.80;89.20;;;;;;9175017;19;19911;-64
2023/02/22 09:35:45;;;;;;;116.10;32.35;;;8.80;89.10;;;;;;9169127;19;20516;-65
2023/02/22 09:38:55;;;;;;;111.93;33.30;;;8.90;89.10;;;;;;9173079;19;20022;-64
2023/02/22 09:42:08;;;;;;;114.03;31.33;;;8.90;89.20;;;;;;9173974;19;20015;-66
2023/02/22 09:45:21;;;;;;;97.03;29.08;;;8.90;89.20;;;;;;9172665;19;20021;-65
2023/02/22 09:48:25;;;;;;;104.75;31.60;;;8.90;89.30;;;;;;9175120;19;20010;-65
2023/02/22 09:51:40;;;;;;;95.65;30.55;;;8.90;89.20;;;;;;9171257;19;20010;-66
2023/02/22 09:54:50;;;;;;;94.80;29.83;;;8.90;89.30;;;;;;9173143;19;20018;-66
2023/02/22 09:58:00;;;;;;;83.78;27.27;;;9.00;89.30;;;;;;9173595;19;20026;-64
2023/02/22 10:01:21;;;;;;;88.50;27.88;;;9.00;89.20;;;;;;9172363;19;20019;-67
2023/02/22 10:04:41;;;;;;;90.88;29.73;;;9.00;89.30;;;;;;9174083;19;20014;-65
2023/02/22 10:07:52;;;;;;;89.15;28.00;;;9.00;89.30;;;;;;9173671;19;20022;-65
2023/02/22 10:11:08;;;;;;;81.85;27.33;;;9.00;89.20;;;;;;9174731;19;20015;-66
2023/02/22 10:14:34;;;;;;;72.78;21.60;;;9.10;89.30;;;;;;9172632;19;20018;-65
2023/02/22 10:17:48;;;;;;;78.68;27.17;;;9.10;89.30;;;;;;9174224;19;20392;-65
2023/02/22 10:20:57;;;;;;;82.88;25.95;;;9.10;89.30;;;;;;9168111;19;20022;-66
2023/02/22 10:24:15;;;;;;;83.65;26.10;;;9.10;89.30;;;;;;9172500;19;20017;-66
2023/02/22 10:27:21;;;;;;;85.82;26.73;;;9.20;89.30;;;;;;9173413;19;20019;-65
2023/02/22 10:30:32;;;;;;;76.85;26.30;;;9.20;89.30;;;;;;9173032;19;20018;-65
2023/02/22 10:33:42;;;;;;;84.18;30.45;;;9.20;89.30;;;;;;9170888;19;20040;-64
2023/02/22 10:36:51;;;;;;;77.93;25.83;;;9.20;89.30;;;;;;9164784;19;20618;-65
2023/02/22 10:40:04;;;;;;;75.50;24.45;;;9.30;89.30;;;;;;9167758;19;20028;-70
2023/02/22 10:43:12;;;;;;;65.93;22.85;;;9.30;89.30;;;;;;9169371;19;20010;-68
2023/02/22 10:46:21;;;;;;;74.32;25.40;;;9.30;89.20;;;;;;9172587;19;20022;-69
2023/02/22 10:49:33;;;;;;;76.15;24.35;;;9.30;89.20;;;;;;9174741;19;20025;-65
2023/02/22 10:52:37;;;;;;;74.10;24.42;;;9.30;89.20;;;;;;9171795;19;20018;-66
2023/02/22 10:56:11;;;;;;;79.90;27.52;;;9.40;89.20;;;;;;9168181;19;20010;-66
2023/02/22 10:59:28;;;;;;;74.72;26.23;;;9.40;89.20;;;;;;9171490;19;20470;-65
2023/02/22 11:02:36;;;;;;;71.00;24.38;;;9.40;89.20;;;;;;9169688;19;20013;-69
2023/02/22 11:05:41;;;;;;;74.57;26.73;;;9.40;89.20;;;;;;9177268;19;20022;-67
2023/02/22 11:08:50;;;;;;;72.97;26.63;;;9.50;89.20;;;;;;9169708;19;20029;-68
2023/02/22 11:12:18;;;;;;;70.20;25.88;;;9.50;89.20;;;;;;9168287;19;20441;-67
2023/02/22 11:15:30;;;;;;;72.32;25.30;;;9.50;89.20;;;;;;9171416;19;20014;-68
2023/02/22 11:18:36;;;;;;;71.68;25.88;;;9.50;89.20;;;;;;9172882;19;20010;-69
2023/02/22 11:21:42;;;;;;;69.68;26.80;;;9.60;89.30;;;;;;9177322;19;20007;-69
2023/02/22 11:24:49;;;;;;;71.35;28.02;;;9.60;89.20;;;;;;9175742;19;20143;-67
2023/02/22 11:28:09;;;;;;;73.45;27.10;;;9.70;89.20;;;;;;9171785;19;20014;-70
2023/02/22 11:31:16;;;;;;;68.28;26.13;;;9.70;89.20;;;;;;9170196;19;20022;-70
2023/02/22 11:34:33;;;;;;;73.75;26.92;;;9.80;89.30;;;;;;9169626;19;20010;-67
2023/02/22 11:37:37;;;;;;;77.70;27.58;;;9.90;89.20;;;;;;9171905;19;20018;-71
2023/02/22 11:40:44;;;;;;;72.15;28.13;;;9.90;89.20;;;;;;9166327;19;20376;-67
2023/02/22 11:43:53;;;;;;;70.80;28.10;;;10.00;89.20;;;;;;9176613;19;20015;-70
2023/02/22 11:47:05;;;;;;;69.68;27.30;;;10.00;89.20;;;;;;9169107;19;20014;-64
2023/02/22 11:50:17;;;;;;;62.78;26.63;;;10.10;89.10;;;;;;9170072;19;21572;-66
2023/02/22 11:53:32;;;;;;;66.85;26.55;;;10.20;89.00;;;;;;9164405;19;20014;-66
2023/02/22 11:56:40;;;;;;;65.38;27.17;;;10.30;89.00;;;;;;9166862;19;20014;-69
2023/02/22 12:00:06;;;;;;;64.57;27.80;;;10.40;88.90;;;;;;9170953;19;20352;-70
2023/02/22 12:03:28;;;;;;;57.35;25.33;;;10.50;88.80;;;;;;9171222;19;20410;-68
2023/02/22 12:06:46;;;;;;;59.85;24.65;;;10.60;88.70;;;;;;9178632;19;20014;-70
2023/02/22 12:09:55;;;;;;;55.58;24.83;;;10.70;88.70;;;;;;9181879;19;20385;-69
2023/02/22 12:13:15;;;;;;;65.50;28.40;;;10.70;88.50;;;;;;9184435;19;20640;-69
2023/02/22 12:16:30;;;;;;;57.65;25.35;;;10.80;88.40;;;;;;9177535;19;20019;-71
2023/02/22 12:19:39;;;;;;;65.25;25.90;;;10.90;88.40;;;;;;9172678;19;20022;-70
2023/02/22 12:22:54;;;;;;;58.30;26.00;;;11.00;88.30;;;;;;9173523;19;20042;-68
2023/02/22 12:26:04;;;;;;;60.78;25.70;;;11.10;88.30;;;;;;9178571;19;20011;-62
2023/02/22 12:29:13;;;;;;;54.30;24.50;;;11.20;88.20;;;;;;9181177;19;20019;-61
2023/02/22 12:32:33;;;;;;;58.85;25.35;;;11.20;88.00;;;;;;9178405;19;20006;-62
2023/02/22 12:35:41;;;;;;;52.33;23.92;;;11.30;87.90;;;;;;9180002;19;20018;-63
2023/02/22 12:38:53;;;;;;;55.10;24.98;;;11.40;87.90;;;;;;9183665;19;20015;-61
2023/02/22 12:41:59;;;;;;;50.78;23.50;;;11.50;87.90;;;;;;9182864;19;20022;-61
2023/02/22 12:45:15;;;;;;;55.42;22.77;;;11.60;87.80;;;;;;9179718;19;20574;-63
2023/02/22 12:48:41;;;;;;;52.65;22.92;;;11.70;87.70;;;;;;9176157;19;20022;-62
2023/02/22 12:51:53;;;;;;;55.53;23.00;;;11.90;87.50;;;;;;9176017;19;20015;-61
2023/02/22 12:55:05;;;;;;;50.05;23.30;;;12.00;87.50;;;;;;9169427;19;20018;-61
2023/02/22 12:58:24;;;;;;;54.05;23.60;;;12.10;87.30;;;;;;9178296;19;20013;-60
2023/02/22 13:01:35;;;;;;;44.67;20.58;;;12.10;87.20;;;;;;9172121;19;20019;-62
2023/02/22 13:04:43;;;;;;;58.67;23.30;;;12.20;87.10;;;;;;9171741;19;20015;-60
2023/02/22 13:07:57;;;;;;;52.90;20.92;;;12.30;87.00;;;;;;9178245;19;20038;-63
2023/02/22 13:11:14;;;;;;;49.83;21.48;;;12.40;86.90;;;;;;9177863;19;20340;-64
2023/02/22 13:14:41;;;;;;;46.42;20.52;;;12.40;86.70;;;;;;9171547;19;20018;-68
2023/02/22 13:17:59;;;;;;;43.70;20.13;;;12.50;86.60;;;;;;9171914;19;20503;-63
2023/02/22 13:21:15;;;;;;;45.60;20.67;;;12.50;86.50;;;;;;9168201;19;20010;-66
2023/02/22 13:24:25;;;;;;;49.20;20.77;;;12.60;86.50;;;;;;9163310;19;20011;-64
2023/02/22 13:27:36;;;;;;;46.30;19.88;;;12.60;86.30;;;;;;9165405;19;20450;-64
2023/02/22 13:30:50;;;;;;;49.42;21.10;;;12.60;86.20;;;;;;9163501;19;20082;-65
2023/02/22 13:34:11;;;;;;;42.00;19.75;;;12.70;86.20;;;;;;9166069;19;20006;-68
2023/02/22 13:37:41;;;;;;;43.55;20.85;;;12.70;85.90;;;;;;9166514;19;20478;-67
2023/02/22 13:41:11;;;;;;;46.55;19.65;;;12.70;85.80;;;;;;9166612;19;20625;-67
2023/02/22 13:44:58;;;;;;;38.97;18.60;;;12.70;85.90;;;;;;9162088;19;20014;-70
2023/02/22 13:48:19;;;;;;;45.65;18.83;;;12.80;85.60;;;;;;9162654;19;20300;-67
2023/02/22 13:51:49;;;;;;;43.80;18.98;;;12.80;85.60;;;;;;9161257;19;20483;-66
2023/02/22 13:55:00;;;;;;;45.35;19.65;;;12.80;85.50;;;;;;9159279;19;20025;-68
2023/02/22 13:58:08;;;;;;;45.33;19.08;;;12.80;85.50;;;;;;9166213;19;20379;-64
2023/02/22 14:01:46;;;;;;;47.20;20.52;;;12.90;85.50;;;;;;9166211;19;20018;-66
2023/02/22 14:04:52;;;;;;;39.60;18.38;;;12.90;85.20;;;;;;9167341;19;20015;-64
2023/02/22 14:07:56;;;;;;;44.63;19.38;;;12.90;85.30;;;;;;9168016;19;20074;-63
2023/02/22 14:11:04;;;;;;;54.67;19.75;;;12.90;85.30;;;;;;9163867;19;20019;-70
2023/02/22 14:14:17;;;;;;;42.75;19.60;;;13.00;85.20;;;;;;9168941;19;20701;-63
2023/02/22 14:17:29;;;;;;;42.70;19.73;;;13.00;85.10;;;;;;9168274;19;20098;-67
2023/02/22 14:20:35;;;;;;;43.95;19.27;;;13.00;85.00;;;;;;9163639;19;20019;-67
2023/02/22 14:23:42;;;;;;;38.63;18.67;;;13.00;85.00;;;;;;9166073;19;20106;-68
2023/02/22 14:26:57;;;;;;;49.95;20.95;;;13.00;84.90;;;;;;9166844;19;20022;-65
2023/02/22 14:30:04;;;;;;;45.20;19.40;;;13.00;84.80;;;;;;9165547;19;20025;-66
2023/02/22 14:33:40;;;;;;;45.55;20.02;;;13.10;84.90;;;;;;9167380;19;20015;-66
2023/02/22 14:36:55;;;;;;;39.63;19.25;;;13.10;84.60;;;;;;9163838;19;20021;-66
2023/02/22 14:40:11;;;;;;;49.90;19.52;;;13.10;84.70;;;;;;9165624;19;20018;-68
2023/02/22 14:43:21;;;;;;;46.90;21.30;;;13.10;84.70;;;;;;9170257;19;20014;-67
2023/02/22 14:46:30;;;;;;;48.60;20.90;;;13.10;84.60;;;;;;9173349;19;20038;-65
2023/02/22 14:49:41;;;;;;;47.90;20.48;;;13.20;84.60;;;;;;9173528;19;20015;-66
2023/02/22 14:52:48;;;;;;;42.20;20.30;;;13.20;84.60;;;;;;9171755;19;20041;-66
2023/02/22 14:56:01;;;;;;;45.67;20.58;;;13.20;84.50;;;;;;9163192;19;20019;-67
2023/02/22 14:59:17;;;;;;;45.85;19.20;;;13.20;84.40;;;;;;9167209;19;20471;-65
2023/02/22 15:02:24;;;;;;;43.60;21.13;;;13.20;84.30;;;;;;9165467;19;20022;-67
2023/02/22 15:05:37;;;;;;;47.75;21.23;;;13.20;84.40;;;;;;9165191;19;20791;-65
2023/02/22 15:08:47;;;;;;;;;;;13.20;84.30;;;;;;9168661;19;20416;-68
2023/02/22 15:11:52;;;;;;;35.78;17.80;;;13.30;84.40;;;;;;9170269;19;20369;-66
2023/02/22 15:15:13;;;;;;;43.92;18.48;;;13.30;84.40;;;;;;9171975;19;20015;-67
2023/02/22 15:18:24;;;;;;;45.53;19.52;;;13.30;84.20;;;;;;9166186;19;20019;-67
2023/02/22 15:21:32;;;;;;;46.63;19.55;;;13.30;84.30;;;;;;9168960;19;20015;-66
2023/02/22 15:24:39;;;;;;;43.17;18.58;;;13.30;84.20;;;;;;9173132;19;20011;-68
2023/02/22 15:27:47;;;;;;;43.55;18.60;;;13.30;84.10;;;;;;9172895;19;20014;-67
2023/02/22 15:30:51;;;;;;;37.88;17.15;;;13.30;84.10;;;;;;9169985;19;20042;-68
2023/02/22 15:33:57;;;;;;;50.28;18.35;;;13.40;84.10;;;;;;9165846;19;20014;-67
2023/02/22 15:37:21;;;;;;;45.90;19.02;;;13.40;84.00;;;;;;9168908;19;20831;-65
2023/02/22 15:40:33;;;;;;;46.03;19.13;;;13.40;83.90;;;;;;9174443;19;20015;-66
2023/02/22 15:43:39;;;;;;;42.15;17.77;;;13.40;83.90;;;;;;9174501;19;20475;-69
2023/02/22 15:46:45;;;;;;;40.00;16.35;;;13.40;83.90;;;;;;9175239;19;20018;-67
2023/02/22 15:50:04;;;;;;;;;;;13.40;83.80;;;;;;9175661;19;20070;-67
2023/02/22 15:53:27;;;;;;;38.03;15.68;;;13.40;83.80;;;;;;9173425;19;19929;-66
2023/02/22 15:56:34;;;;;;;41.80;16.98;;;13.40;83.70;;;;;;9170579;19;20352;-66
2023/02/22 15:59:47;;;;;;;36.72;15.82;;;13.40;83.70;;;;;;9175051;19;20021;-67
2023/02/22 16:02:52;;;;;;;36.33;16.35;;;13.40;83.70;;;;;;9171842;19;20353;-65
2023/02/22 16:06:00;;;;;;;47.65;20.08;;;13.40;83.60;;;;;;9174002;19;20018;-67
2023/02/22 16:09:09;;;;;;;57.55;22.52;;;13.40;83.50;;;;;;9172015;19;20018;-68
2023/02/22 16:12:28;;;;;;;50.55;22.38;;;13.40;83.40;;;;;;9166663;19;20011;-66
2023/02/22 16:15:33;;;;;;;37.17;17.25;;;13.40;83.40;;;;;;9169884;19;20019;-67